Time;durP1;ratioP1;P1;durP2;ratioP2;P2;SDS_P1;SDS_P2;PMS_P1;PMS_P2;Temp;Humidity;BMP_temperature;BMP_pressure;BME280_temperature;BME280_humidity;BME280_pressure;Samples;Min_cycle;Max_cycle;Signal;HPM_P1;HPM_P2
2023/07/06 00:01:01;;;;;;;3.28;1.80;;;;;;;;;;4956940;28;20027;-87
2023/07/06 00:03:27;;;;;;;3.45;2.17;;;;;;;;;;4983364;28;20552;-87
2023/07/06 00:05:53;;;;;;;3.85;1.83;;;;;;;;;;4978483;28;20030;-87
2023/07/06 00:08:18;;;;;;;2.70;1.90;;;;;;;;;;4969180;28;20298;-87
2023/07/06 00:10:45;;;;;;;3.70;1.80;;;;;;;;;;4975513;28;20035;-88
2023/07/06 00:13:11;;;;;;;3.92;2.00;;;;;;;;;;4984325;28;20109;-86
2023/07/06 00:15:37;;;;;;;2.65;1.83;;;;;;;;;;4979806;28;20018;-86
2023/07/06 00:18:04;;;;;;;3.72;1.70;;;;;;;;;;4986375;28;20018;-87
2023/07/06 00:20:30;;;;;;;4.10;1.92;;;;;;;;;;4982042;28;20078;-86
2023/07/06 00:22:55;;;;;;;4.07;1.95;;;;;;;;;;4994453;28;20026;-87
2023/07/06 00:25:21;;;;;;;2.80;1.77;;;;;;;;;;4990945;28;20406;-86
2023/07/06 00:27:48;;;;;;;1.90;1.52;;;;;;;;;;4979926;28;20115;-86
2023/07/06 00:30:20;;;;;;;4.07;1.80;;;;;;;;;;4981614;28;20046;-86
2023/07/06 00:32:47;;;;;;;2.90;1.80;;;;;;;;;;4974912;28;20026;-86
2023/07/06 00:35:15;;;;;;;2.28;1.35;;;;;;;;;;4990838;28;20029;-87
2023/07/06 00:37:41;;;;;;;3.97;1.52;;;;;;;;;;4985367;28;20015;-86
2023/07/06 00:40:12;;;;;;;3.85;1.48;;;;;;;;;;4981179;28;20045;-86
2023/07/06 00:42:39;;;;;;;5.13;1.90;;;;;;;;;;4981607;28;20049;-87
2023/07/06 00:45:08;;;;;;;6.53;2.10;;;;;;;;;;4982229;28;20018;-86
2023/07/06 00:47:38;;;;;;;10.10;1.60;;;;;;;;;;4981737;28;20109;-86
2023/07/06 00:50:07;;;;;;;3.97;1.58;;;;;;;;;;4983202;28;20031;-86
2023/07/06 00:52:43;;;;;;;4.72;1.90;;;;;;;;;;4975939;28;20027;-85
2023/07/06 00:55:12;;;;;;;5.88;2.28;;;;;;;;;;4981629;28;20441;-85
2023/07/06 00:57:39;;;;;;;5.07;1.75;;;;;;;;;;4974715;28;20298;-85
2023/07/06 01:00:07;;;;;;;7.25;2.08;;;;;;;;;;4976548;28;20166;-85
2023/07/06 01:02:38;;;;;;;3.90;1.83;;;;;;;;;;4976428;28;20033;-85
2023/07/06 01:05:05;;;;;;;2.15;1.60;;;;;;;;;;4978382;28;20023;-85
2023/07/06 01:07:32;;;;;;;4.47;1.83;;;;;;;;;;4983546;28;20038;-84
2023/07/06 01:09:58;;;;;;;9.73;3.35;;;;;;;;;;4972910;28;20054;-85
2023/07/06 01:12:24;;;;;;;7.53;3.25;;;;;;;;;;4974372;28;20562;-85
2023/07/06 01:14:51;;;;;;;8.90;3.22;;;;;;;;;;4986725;28;20113;-85
2023/07/06 01:17:33;;;;;;;7.50;3.10;;;;;;;;;;4975314;28;20031;-85
2023/07/06 01:20:21;;;;;;;4.78;2.65;;;;;;;;;;4976105;28;20033;-85
2023/07/06 01:23:12;;;;;;;8.68;2.33;;;;;;;;;;4973771;28;20022;-85
2023/07/06 01:26:15;;;;;;;2.90;1.88;;;;;;;;;;4977762;28;20031;-85
2023/07/06 01:29:02;;;;;;;3.58;1.50;;;;;;;;;;4981275;28;20061;-85
2023/07/06 01:31:43;;;;;;;6.70;2.10;;;;;;;;;;4970962;28;20034;-85
2023/07/06 01:34:41;;;;;;;3.97;1.90;;;;;;;;;;4974636;28;20031;-85
2023/07/06 01:37:26;;;;;;;3.22;1.83;;;;;;;;;;4974899;28;20066;-85
2023/07/06 01:39:53;;;;;;;3.70;1.90;;;;;;;;;;4967586;28;20030;-85
2023/07/06 01:42:30;;;;;;;2.03;1.38;;;;;;;;;;4984517;28;20077;-85
2023/07/06 01:45:11;;;;;;;3.38;1.60;;;;;;;;;;4973960;28;20023;-85
2023/07/06 01:47:43;;;;;;;2.65;1.60;;;;;;;;;;4974127;28;20182;-84
2023/07/06 01:50:12;;;;;;;2.17;1.77;;;;;;;;;;4972485;28;20398;-85
2023/07/06 01:52:53;;;;;;;5.15;2.08;;;;;;;;;;4974244;28;20085;-84
2023/07/06 01:55:37;;;;;;;3.13;2.00;;;;;;;;;;4980237;28;20022;-85
2023/07/06 01:58:17;;;;;;;2.42;1.55;;;;;;;;;;4983867;28;20023;-85
2023/07/06 02:00:49;;;;;;;2.22;1.70;;;;;;;;;;4974931;28;20486;-84
2023/07/06 02:03:15;;;;;;;;;;;;;;;;;;4973140;28;20097;-84
2023/07/06 02:05:41;;;;;;;3.00;1.48;;;;;;;;;;4973518;28;20001;-85
2023/07/06 02:08:09;;;;;;;1.83;1.60;;;;;;;;;;4975982;28;20089;-85
2023/07/06 02:10:34;;;;;;;4.07;1.88;;;;;;;;;;4976195;28;20379;-84
2023/07/06 02:13:00;;;;;;;3.90;1.83;;;;;;;;;;4972663;28;20034;-84
2023/07/06 02:15:27;;;;;;;4.90;2.03;;;;;;;;;;4974554;28;20062;-85
2023/07/06 02:17:55;;;;;;;3.38;1.55;;;;;;;;;;4973404;28;20041;-85
2023/07/06 02:20:20;;;;;;;3.38;1.75;;;;;;;;;;4973330;28;20057;-85
2023/07/06 02:22:46;;;;;;;1.95;1.63;;;;;;;;;;4971721;28;20470;-86
2023/07/06 02:25:12;;;;;;;4.90;2.45;;;;;;;;;;4971277;28;20103;-86
2023/07/06 02:27:38;;;;;;;3.47;1.80;;;;;;;;;;4973126;28;20121;-85
2023/07/06 02:30:05;;;;;;;5.93;1.95;;;;;;;;;;4981828;28;20033;-85
2023/07/06 02:32:31;;;;;;;8.27;2.33;;;;;;;;;;4981640;28;20077;-85
2023/07/06 02:34:56;;;;;;;6.05;3.10;;;;;;;;;;4973704;28;20035;-86
2023/07/06 02:37:23;;;;;;;7.43;2.50;;;;;;;;;;4978715;28;20030;-86
2023/07/06 02:39:50;;;;;;;6.63;2.20;;;;;;;;;;4967442;28;20030;-86
2023/07/06 02:42:15;;;;;;;5.82;2.63;;;;;;;;;;4973625;28;20056;-85
2023/07/06 02:44:41;;;;;;;6.00;2.65;;;;;;;;;;4977007;28;20037;-85
2023/07/06 02:47:08;;;;;;;7.65;3.05;;;;;;;;;;4973174;28;20034;-86
2023/07/06 02:49:33;;;;;;;2.63;1.50;;;;;;;;;;4973235;28;20114;-86
2023/07/06 02:52:02;;;;;;;7.15;2.50;;;;;;;;;;4966436;28;20090;-85
2023/07/06 02:54:27;;;;;;;4.53;2.33;;;;;;;;;;4971454;28;20062;-86
2023/07/06 02:56:53;;;;;;;6.15;2.15;;;;;;;;;;4969779;28;20058;-85
2023/07/06 02:59:19;;;;;;;3.92;2.03;;;;;;;;;;4972191;28;20446;-86
2023/07/06 03:01:47;;;;;;;3.05;1.88;;;;;;;;;;4972255;28;20486;-86
2023/07/06 03:04:12;;;;;;;7.32;2.13;;;;;;;;;;4973614;28;20121;-86
2023/07/06 03:06:38;;;;;;;6.05;2.22;;;;;;;;;;4972520;28;20113;-85
2023/07/06 03:09:04;;;;;;;5.15;1.70;;;;;;;;;;4975436;28;20027;-85
2023/07/06 03:11:32;;;;;;;5.10;2.05;;;;;;;;;;4982049;28;20030;-85
2023/07/06 03:13:59;;;;;;;5.88;2.10;;;;;;;;;;4975603;28;20030;-85
2023/07/06 03:16:25;;;;;;;6.68;2.17;;;;;;;;;;4973506;28;20035;-86
2023/07/06 03:18:50;;;;;;;4.07;1.98;;;;;;;;;;4967050;28;20101;-88
2023/07/06 03:21:15;;;;;;;5.25;1.92;;;;;;;;;;4972580;28;20114;-85
2023/07/06 03:23:41;;;;;;;3.97;2.10;;;;;;;;;;4968186;28;20114;-86
2023/07/06 03:26:06;;;;;;;3.85;2.10;;;;;;;;;;4972076;28;20027;-86
2023/07/06 03:28:32;;;;;;;2.47;1.92;;;;;;;;;;4975703;28;20086;-86
2023/07/06 03:30:58;;;;;;;2.65;1.73;;;;;;;;;;4974125;28;20052;-85
2023/07/06 03:33:24;;;;;;;7.28;2.45;;;;;;;;;;4980153;28;20061;-86
2023/07/06 03:35:58;;;;;;;5.95;2.28;;;;;;;;;;4971555;28;20057;-86
2023/07/06 03:38:25;;;;;;;4.40;2.05;;;;;;;;;;4973425;28;20442;-86
2023/07/06 03:40:51;;;;;;;5.45;2.85;;;;;;;;;;4973181;28;20035;-86
2023/07/06 03:43:17;;;;;;;6.70;2.30;;;;;;;;;;4971837;28;20022;-86
2023/07/06 03:45:46;;;;;;;4.72;2.15;;;;;;;;;;4975682;28;20027;-86
2023/07/06 03:48:12;;;;;;;6.85;2.00;;;;;;;;;;4973165;28;20113;-86
2023/07/06 03:50:38;;;;;;;4.47;2.45;;;;;;;;;;4972020;28;20034;-86
2023/07/06 03:53:03;;;;;;;5.45;2.28;;;;;;;;;;4974802;28;20113;-86
2023/07/06 03:55:28;;;;;;;3.33;1.95;;;;;;;;;;4974719;28;20033;-85
2023/07/06 03:57:54;;;;;;;7.05;2.38;;;;;;;;;;4971667;28;20027;-85
2023/07/06 04:00:22;;;;;;;4.95;2.30;;;;;;;;;;4973819;28;20059;-86
2023/07/06 04:02:52;;;;;;;6.68;2.40;;;;;;;;;;4972456;28;20147;-85
2023/07/06 04:05:22;;;;;;;4.53;2.33;;;;;;;;;;4971350;28;20026;-85
2023/07/06 04:07:52;;;;;;;4.53;2.30;;;;;;;;;;4971714;28;20038;-86
2023/07/06 04:10:20;;;;;;;5.07;2.67;;;;;;;;;;4970860;28;20030;-86
2023/07/06 04:12:45;;;;;;;5.88;2.42;;;;;;;;;;4974278;28;20093;-86
2023/07/06 04:15:11;;;;;;;5.93;2.40;;;;;;;;;;4973943;28;20038;-85
2023/07/06 04:17:36;;;;;;;4.20;2.33;;;;;;;;;;4966118;28;20072;-85
2023/07/06 04:20:18;;;;;;;5.35;2.00;;;;;;;;;;4931569;28;20031;-85
2023/07/06 04:22:43;;;;;;;4.67;2.57;;;;;;;;;;4971390;28;20099;-86
2023/07/06 04:25:09;;;;;;;4.47;2.03;;;;;;;;;;4968033;28;20113;-86
2023/07/06 04:27:34;;;;;;;5.15;2.40;;;;;;;;;;4968081;28;20114;-85
2023/07/06 04:29:59;;;;;;;3.53;2.20;;;;;;;;;;4977851;28;20030;-85
2023/07/06 04:32:31;;;;;;;4.00;2.10;;;;;;;;;;4976133;28;20086;-84
2023/07/06 04:34:57;;;;;;;4.13;2.25;;;;;;;;;;4976178;28;20566;-85
2023/07/06 04:37:22;;;;;;;3.72;2.05;;;;;;;;;;4975001;28;20514;-85
2023/07/06 04:39:47;;;;;;;5.53;2.63;;;;;;;;;;4974904;28;20027;-84
2023/07/06 04:42:13;;;;;;;5.53;2.67;;;;;;;;;;4976382;28;20023;-84
2023/07/06 04:44:38;;;;;;;5.05;2.40;;;;;;;;;;4975532;28;20029;-85
2023/07/06 04:47:04;;;;;;;4.95;2.33;;;;;;;;;;4976123;28;20019;-85
2023/07/06 04:49:29;;;;;;;4.32;2.90;;;;;;;;;;4975903;28;20077;-85
2023/07/06 04:51:54;;;;;;;6.55;3.20;;;;;;;;;;4975583;28;20055;-85
2023/07/06 04:54:20;;;;;;;5.43;3.22;;;;;;;;;;4977145;28;20670;-85
2023/07/06 04:56:45;;;;;;;5.63;3.00;;;;;;;;;;4977662;28;20026;-84
2023/07/06 04:59:11;;;;;;;5.30;3.00;;;;;;;;;;4977725;28;20026;-85
2023/07/06 05:01:36;;;;;;;9.10;3.15;;;;;;;;;;4977474;28;20073;-85
2023/07/06 05:04:02;;;;;;;7.22;3.38;;;;;;;;;;4976167;28;20137;-85
2023/07/06 05:06:27;;;;;;;8.57;3.15;;;;;;;;;;4979978;28;20038;-85
2023/07/06 05:08:53;;;;;;;8.45;3.35;;;;;;;;;;4977004;28;20033;-84
2023/07/06 05:11:18;;;;;;;13.23;3.20;;;;;;;;;;4977608;28;20023;-85
2023/07/06 05:13:45;;;;;;;6.72;3.13;;;;;;;;;;4977010;28;20018;-84
2023/07/06 05:16:10;;;;;;;5.88;3.10;;;;;;;;;;4984397;28;20034;-85
2023/07/06 05:18:36;;;;;;;7.13;3.13;;;;;;;;;;4977772;28;20023;-84
2023/07/06 05:21:01;;;;;;;7.13;3.40;;;;;;;;;;4992555;28;20090;-84
2023/07/06 05:23:29;;;;;;;9.90;3.40;;;;;;;;;;4994659;28;20027;-84
2023/07/06 05:25:56;;;;;;;9.75;3.47;;;;;;;;;;4998758;28;20067;-84
2023/07/06 05:28:22;;;;;;;6.40;3.47;;;;;;;;;;4998211;28;20481;-84
2023/07/06 05:30:48;;;;;;;6.95;3.90;;;;;;;;;;4992909;28;20030;-85
2023/07/06 05:33:14;;;;;;;5.75;2.90;;;;;;;;;;4981402;28;20038;-84
2023/07/06 05:35:41;;;;;;;6.40;3.20;;;;;;;;;;4977176;28;20035;-85
2023/07/06 05:38:10;;;;;;;4.32;3.10;;;;;;;;;;4977260;28;20030;-85
2023/07/06 05:40:40;;;;;;;4.95;2.80;;;;;;;;;;4974543;28;20383;-85
2023/07/06 05:43:05;;;;;;;7.53;2.72;;;;;;;;;;4969921;28;20023;-84
2023/07/06 05:45:31;;;;;;;6.05;3.15;;;;;;;;;;4973957;28;20037;-85
2023/07/06 05:47:56;;;;;;;4.85;3.05;;;;;;;;;;4977774;28;20033;-84
2023/07/06 05:50:21;;;;;;;4.05;2.75;;;;;;;;;;4976575;28;20034;-85
2023/07/06 05:52:47;;;;;;;8.43;2.75;;;;;;;;;;4978380;28;20074;-85
2023/07/06 05:55:13;;;;;;;5.43;2.80;;;;;;;;;;4975880;28;20031;-84
2023/07/06 05:57:39;;;;;;;6.25;3.03;;;;;;;;;;4976208;28;20027;-85
2023/07/06 06:00:09;;;;;;;6.47;3.10;;;;;;;;;;4976795;28;20146;-83
2023/07/06 06:02:37;;;;;;;5.55;2.90;;;;;;;;;;4977199;28;20037;-85
2023/07/06 06:05:03;;;;;;;4.85;2.90;;;;;;;;;;4975021;28;20058;-85
2023/07/06 06:07:31;;;;;;;4.03;2.50;;;;;;;;;;4975383;28;20031;-84
2023/07/06 06:09:56;;;;;;;5.13;2.58;;;;;;;;;;4976683;28;20030;-85
2023/07/06 06:12:22;;;;;;;6.90;3.00;;;;;;;;;;4975527;28;20030;-85
2023/07/06 06:14:48;;;;;;;6.13;2.60;;;;;;;;;;4972448;28;20031;-85
2023/07/06 06:17:19;;;;;;;4.55;2.38;;;;;;;;;;4973360;28;20038;-85
2023/07/06 06:19:45;;;;;;;5.50;3.05;;;;;;;;;;4969903;28;20086;-85
2023/07/06 06:22:12;;;;;;;6.38;2.33;;;;;;;;;;4975345;28;20026;-83
2023/07/06 06:24:37;;;;;;;5.72;2.63;;;;;;;;;;4975521;28;20057;-84
2023/07/06 06:27:04;;;;;;;8.27;2.42;;;;;;;;;;4978205;28;20026;-84
2023/07/06 06:29:30;;;;;;;4.05;2.45;;;;;;;;;;4982740;28;20379;-85
2023/07/06 06:31:56;;;;;;;3.05;1.98;;;;;;;;;;4974088;28;20038;-84
2023/07/06 06:34:23;;;;;;;4.40;2.50;;;;;;;;;;4969359;28;20043;-84
2023/07/06 06:37:10;;;;;;;;;;;;;;;;;;;;;
2023/07/06 06:39:37;;;;;;;3.22;2.17;;;;;;;;;;4976605;28;20118;-85
2023/07/06 06:42:04;;;;;;;4.97;2.33;;;;;;;;;;4982975;28;20033;-85
2023/07/06 06:44:29;;;;;;;6.35;2.10;;;;;;;;;;4987902;28;20092;-84
2023/07/06 06:47:01;;;;;;;3.92;1.98;;;;;;;;;;4981242;28;20038;-85
2023/07/06 06:49:27;;;;;;;4.07;1.73;;;;;;;;;;4978706;28;20023;-85
2023/07/06 06:51:52;;;;;;;7.07;1.83;;;;;;;;;;4997386;23;20046;-80
2023/07/06 06:54:19;;;;;;;2.97;1.80;;;;;;;;;;4990054;28;20034;-80
2023/07/06 06:56:44;;;;;;;3.75;1.80;;;;;;;;;;4996900;28;20031;-80
2023/07/06 06:59:11;;;;;;;5.70;1.90;;;;;;;;;;4990024;28;20031;-81
2023/07/06 07:01:38;;;;;;;4.95;2.05;;;;;;;;;;4981993;28;20018;-81
2023/07/06 07:04:03;;;;;;;5.63;1.73;;;;;;;;;;4996206;28;20464;-81
2023/07/06 07:06:30;;;;;;;3.92;1.90;;;;;;;;;;5003035;28;20089;-81
2023/07/06 07:08:57;;;;;;;3.17;2.10;;;;;;;;;;4982798;28;20324;-81
2023/07/06 07:11:23;;;;;;;4.32;1.92;;;;;;;;;;4988221;28;20042;-80
2023/07/06 07:13:48;;;;;;;3.65;1.80;;;;;;;;;;4992545;28;20109;-80
2023/07/06 07:16:15;;;;;;;4.32;1.60;;;;;;;;;;4996960;28;20054;-81
2023/07/06 07:18:40;;;;;;;2.13;1.75;;;;;;;;;;4995973;28;20026;-80
2023/07/06 07:21:06;;;;;;;4.80;1.90;;;;;;;;;;4993173;28;20546;-79
2023/07/06 07:23:40;;;;;;;3.50;1.55;;;;;;;;;;4985001;28;20423;-81
2023/07/06 07:26:10;;;;;;;4.65;1.88;;;;;;;;;;4988959;28;20106;-80
2023/07/06 07:28:37;;;;;;;3.47;1.98;;;;;;;;;;4981544;28;20080;-80
2023/07/06 07:31:03;;;;;;;5.35;1.90;;;;;;;;;;4994673;28;20402;-81
2023/07/06 07:33:28;;;;;;;4.72;1.75;;;;;;;;;;4989346;28;20050;-80
2023/07/06 07:35:57;;;;;;;2.72;1.65;;;;;;;;;;4991438;23;20046;-81
2023/07/06 07:38:23;;;;;;;2.30;1.50;;;;;;;;;;4966726;28;20033;-81
2023/07/06 07:40:57;;;;;;;8.70;1.65;;;;;;;;;;4973589;28;20034;-80
2023/07/06 07:43:27;;;;;;;3.22;1.60;;;;;;;;;;4974258;28;20098;-81
2023/07/06 07:45:58;;;;;;;5.80;1.85;;;;;;;;;;4959789;28;20027;-80
2023/07/06 07:48:25;;;;;;;2.20;1.38;;;;;;;;;;4942232;29;20038;-80
2023/07/06 07:50:58;;;;;;;3.63;1.65;;;;;;;;;;4955585;29;20055;-80
2023/07/06 07:53:25;;;;;;;3.80;1.83;;;;;;;;;;4951183;28;20031;-81
2023/07/06 07:55:53;;;;;;;2.63;1.92;;;;;;;;;;4955484;28;20019;-81
2023/07/06 07:58:19;;;;;;;1.70;1.38;;;;;;;;;;4958019;28;20054;-81
2023/07/06 08:00:51;;;;;;;3.08;1.65;;;;;;;;;;4957580;28;20023;-80
2023/07/06 08:03:16;;;;;;;;;;;;;;;;;;4956138;28;20028;-80
2023/07/06 08:05:42;;;;;;;3.88;1.67;;;;;;;;;;4945712;28;19915;-81
2023/07/06 08:08:10;;;;;;;3.67;1.58;;;;;;;;;;4948190;29;20036;-79
2023/07/06 08:10:36;;;;;;;5.85;1.77;;;;;;;;;;4950125;29;20019;-80
2023/07/06 08:13:03;;;;;;;3.95;1.40;;;;;;;;;;4945575;29;20122;-79
2023/07/06 08:15:29;;;;;;;3.75;1.67;;;;;;;;;;4952895;28;20425;-79
2023/07/06 08:18:00;;;;;;;1.63;1.40;;;;;;;;;;4951524;29;20532;-79
2023/07/06 08:20:28;;;;;;;2.53;1.57;;;;;;;;;;4960056;28;20027;-79
2023/07/06 08:22:57;;;;;;;2.42;1.42;;;;;;;;;;4955664;28;20028;-80
2023/07/06 08:25:23;;;;;;;2.47;1.35;;;;;;;;;;4955169;28;20043;-82
2023/07/06 08:27:48;;;;;;;4.07;1.40;;;;;;;;;;4949347;28;20036;-82
2023/07/06 08:30:14;;;;;;;3.85;1.63;;;;;;;;;;4951245;29;20027;-82
2023/07/06 08:32:39;;;;;;;3.50;1.38;;;;;;;;;;4946972;29;20026;-79
2023/07/06 08:35:05;;;;;;;2.70;1.67;;;;;;;;;;4947103;28;20034;-81
2023/07/06 08:37:30;;;;;;;3.50;1.70;;;;;;;;;;4948152;29;20027;-79
2023/07/06 08:39:55;;;;;;;2.05;1.45;;;;;;;;;;4938383;29;20434;-81
2023/07/06 08:42:21;;;;;;;2.05;1.85;;;;;;;;;;4947344;29;20489;-81
2023/07/06 08:44:51;;;;;;;2.50;1.33;;;;;;;;;;4949393;28;20043;-81
2023/07/06 08:47:17;;;;;;;2.45;1.65;;;;;;;;;;4948916;29;20044;-81
2023/07/06 08:49:46;;;;;;;5.10;2.00;;;;;;;;;;4954872;29;20038;-80
2023/07/06 08:52:15;;;;;;;2.38;1.42;;;;;;;;;;4954887;28;20311;-81
2023/07/06 08:54:41;;;;;;;2.67;1.58;;;;;;;;;;4955121;28;20043;-79
2023/07/06 08:57:16;;;;;;;7.70;1.60;;;;;;;;;;4958302;29;20019;-79
2023/07/06 08:59:48;;;;;;;7.65;1.60;;;;;;;;;;4958849;28;20031;-78
2023/07/06 09:02:20;;;;;;;5.13;1.85;;;;;;;;;;4957619;29;20034;-79
2023/07/06 09:04:47;;;;;;;2.60;1.67;;;;;;;;;;4960196;28;20063;-78
2023/07/06 09:07:15;;;;;;;3.20;1.67;;;;;;;;;;4957459;29;20057;-79
2023/07/06 09:09:45;;;;;;;3.13;1.90;;;;;;;;;;4958854;28;20024;-79
2023/07/06 09:12:34;;;;;;;4.07;1.65;;;;;;;;;;4954598;28;20028;-78
2023/07/06 09:15:02;;;;;;;7.30;1.83;;;;;;;;;;4955624;29;20401;-80
2023/07/06 09:17:27;;;;;;;1.67;1.40;;;;;;;;;;4954407;29;20486;-80
2023/07/06 09:19:56;;;;;;;3.85;1.75;;;;;;;;;;4950173;29;20091;-80
2023/07/06 09:22:22;;;;;;;3.83;1.90;;;;;;;;;;4952993;29;20486;-80
2023/07/06 09:24:49;;;;;;;4.05;1.55;;;;;;;;;;4955962;28;20039;-80
2023/07/06 09:27:28;;;;;;;1.30;1.20;;;;;;;;;;4959426;29;20027;-80
2023/07/06 09:30:02;;;;;;;3.80;1.38;;;;;;;;;;4960496;29;20031;-80
2023/07/06 09:32:29;;;;;;;3.80;1.83;;;;;;;;;;4956556;29;20236;-80
2023/07/06 09:34:59;;;;;;;1.67;1.58;;;;;;;;;;4952071;29;20069;-80
2023/07/06 09:37:26;;;;;;;4.20;1.60;;;;;;;;;;4959145;28;20031;-80
2023/07/06 09:40:09;;;;;;;2.67;1.38;;;;;;;;;;4958183;29;20035;-81
2023/07/06 09:42:35;;;;;;;2.58;1.50;;;;;;;;;;4960041;29;20042;-81
2023/07/06 09:45:28;;;;;;;3.17;1.58;;;;;;;;;;4961746;28;20027;-81
2023/07/06 09:51:50;;;;;;;1.65;1.40;;;;;;;;;;4930215;29;20524;-81
2023/07/06 09:54:44;;;;;;;2.00;1.42;;;;;;;;;;4946060;28;20046;-81
2023/07/06 09:57:17;;;;;;;2.65;1.52;;;;;;;;;;4945281;28;20038;-81
2023/07/06 09:59:47;;;;;;;2.25;1.73;;;;;;;;;;4953795;28;20035;-81
2023/07/06 10:02:41;;;;;;;2.28;1.63;;;;;;;;;;4950315;29;20039;-81
2023/07/06 10:05:29;;;;;;;1.90;1.33;;;;;;;;;;4958142;28;20111;-82
2023/07/06 10:08:13;;;;;;;2.58;1.65;;;;;;;;;;4951802;29;20027;-81
2023/07/06 10:10:50;;;;;;;2.60;1.73;;;;;;;;;;4960029;28;20193;-81
2023/07/06 10:13:51;;;;;;;3.53;1.45;;;;;;;;;;4946072;29;20509;-81
2023/07/06 10:16:22;;;;;;;2.00;1.23;;;;;;;;;;4956574;29;20101;-80
2023/07/06 10:19:10;;;;;;;5.72;1.70;;;;;;;;;;4958954;29;20038;-81
2023/07/06 10:21:42;;;;;;;4.63;1.80;;;;;;;;;;4955306;29;20498;-80
2023/07/06 10:24:20;;;;;;;3.50;1.45;;;;;;;;;;4958867;28;20051;-80
2023/07/06 10:26:52;;;;;;;2.17;1.50;;;;;;;;;;4955159;29;20031;-80
2023/07/06 10:29:24;;;;;;;3.25;1.60;;;;;;;;;;4952779;29;20106;-80
2023/07/06 10:31:59;;;;;;;3.92;1.77;;;;;;;;;;4957679;29;20035;-80
2023/07/06 10:34:54;;;;;;;3.22;1.60;;;;;;;;;;4952038;28;20088;-80
2023/07/06 10:37:20;;;;;;;2.83;1.80;;;;;;;;;;4957286;28;20023;-80
2023/07/06 10:39:46;;;;;;;4.65;1.38;;;;;;;;;;4951883;28;20122;-81
2023/07/06 10:42:41;;;;;;;4.80;1.80;;;;;;;;;;4956605;29;20059;-80
2023/07/06 10:45:22;;;;;;;2.85;1.55;;;;;;;;;;4959645;28;20418;-80
2023/07/06 10:47:49;;;;;;;7.60;1.73;;;;;;;;;;4960351;28;20082;-80
2023/07/06 10:50:19;;;;;;;3.88;1.65;;;;;;;;;;4957106;28;20090;-80
2023/07/06 10:56:01;;;;;;;2.65;1.58;;;;;;;;;;4956297;28;20124;-78
2023/07/06 10:58:33;;;;;;;1.70;1.45;;;;;;;;;;4957953;28;20736;-78
2023/07/06 11:01:04;;;;;;;3.03;1.85;;;;;;;;;;4957278;29;20035;-78
2023/07/06 11:03:47;;;;;;;2.80;1.70;;;;;;;;;;4957341;29;20478;-78
2023/07/06 11:06:41;;;;;;;2.55;1.50;;;;;;;;;;4957159;28;20031;-78
2023/07/06 11:09:07;;;;;;;2.88;1.60;;;;;;;;;;4957729;29;20381;-78
2023/07/06 11:11:54;;;;;;;3.22;1.63;;;;;;;;;;4953971;28;20129;-78
2023/07/06 11:14:31;;;;;;;3.20;1.88;;;;;;;;;;4953854;28;20584;-78
2023/07/06 11:17:02;;;;;;;3.60;1.90;;;;;;;;;;4957369;29;20051;-78
2023/07/06 11:19:34;;;;;;;4.70;2.22;;;;;;;;;;4947946;29;20401;-76
2023/07/06 11:22:07;;;;;;;6.63;2.75;;;;;;;;;;4955938;29;20023;-84
2023/07/06 11:24:39;;;;;;;5.25;1.83;;;;;;;;;;4960322;28;20031;-79
2023/07/06 11:27:22;;;;;;;5.15;1.85;;;;;;;;;;4959074;29;20025;-79
2023/07/06 11:29:47;;;;;;;3.65;1.75;;;;;;;;;;4959710;28;20035;-79
2023/07/06 11:32:28;;;;;;;4.00;2.13;;;;;;;;;;4949297;28;20505;-79
2023/07/06 11:35:13;;;;;;;3.25;1.60;;;;;;;;;;4949253;28;20027;-79
2023/07/06 11:37:44;;;;;;;3.28;1.88;;;;;;;;;;4957214;28;20082;-78
2023/07/06 11:40:28;;;;;;;2.00;1.80;;;;;;;;;;4956395;29;20042;-81
2023/07/06 11:43:07;;;;;;;3.28;1.60;;;;;;;;;;4962798;29;20102;-80
2023/07/06 11:45:43;;;;;;;5.32;1.70;;;;;;;;;;4962453;28;20031;-80
2023/07/06 11:48:37;;;;;;;4.53;1.80;;;;;;;;;;4957779;29;20047;-79
2023/07/06 11:51:04;;;;;;;3.08;1.50;;;;;;;;;;4941508;29;20057;-80
2023/07/06 11:53:53;;;;;;;2.22;1.70;;;;;;;;;;4948706;29;20642;-79
2023/07/06 11:56:33;;;;;;;4.70;1.98;;;;;;;;;;4957496;28;20023;-79
2023/07/06 11:59:04;;;;;;;4.43;2.03;;;;;;;;;;4959137;28;20034;-79
2023/07/06 12:01:42;;;;;;;3.10;1.50;;;;;;;;;;4955265;29;20394;-79
2023/07/06 12:04:29;;;;;;;3.75;1.65;;;;;;;;;;4958223;28;20027;-79
2023/07/06 12:06:56;;;;;;;2.38;1.80;;;;;;;;;;4956553;29;20624;-80
2023/07/06 12:09:23;;;;;;;6.38;1.73;;;;;;;;;;4959302;29;20031;-80
2023/07/06 12:12:01;;;;;;;2.75;1.67;;;;;;;;;;4957979;29;20023;-80
2023/07/06 12:14:27;;;;;;;2.97;1.83;;;;;;;;;;4950559;28;20107;-79
2023/07/06 12:16:54;;;;;;;5.45;1.90;;;;;;;;;;4992507;23;20066;-86
2023/07/06 12:19:20;;;;;;;3.78;1.60;;;;;;;;;;4974083;28;20026;-87
2023/07/06 12:21:54;;;;;;;5.03;1.90;;;;;;;;;;4975514;28;20042;-86
2023/07/06 12:24:23;;;;;;;4.90;1.80;;;;;;;;;;4974055;28;20034;-86
2023/07/06 12:26:57;;;;;;;5.45;1.80;;;;;;;;;;4978412;28;20537;-87
2023/07/06 12:29:26;;;;;;;5.07;1.95;;;;;;;;;;4970034;28;20031;-86
2023/07/06 12:31:54;;;;;;;3.47;1.55;;;;;;;;;;4980495;28;20080;-87
2023/07/06 12:34:26;;;;;;;3.60;1.67;;;;;;;;;;4987957;28;20038;-86
2023/07/06 12:36:54;;;;;;;2.60;1.83;;;;;;;;;;4979694;28;20026;-86
2023/07/06 12:39:20;;;;;;;2.33;1.65;;;;;;;;;;4971524;28;20026;-86
2023/07/06 12:41:47;;;;;;;2.65;1.70;;;;;;;;;;4982620;28;20046;-86
2023/07/06 12:44:17;;;;;;;4.47;1.42;;;;;;;;;;4984066;28;20049;-86
2023/07/06 12:46:58;;;;;;;4.95;1.65;;;;;;;;;;4974376;28;20430;-88
2023/07/06 12:49:23;;;;;;;2.55;1.60;;;;;;;;;;4980132;28;20474;-85
2023/07/06 12:51:54;;;;;;;1.95;1.63;;;;;;;;;;4987396;28;20062;-88
2023/07/06 12:54:22;;;;;;;5.18;1.80;;;;;;;;;;4988375;28;20041;-88
2023/07/06 12:56:59;;;;;;;2.38;1.80;;;;;;;;;;4980572;28;20023;-88
2023/07/06 12:59:26;;;;;;;3.80;1.67;;;;;;;;;;4982736;28;20038;-85
2023/07/06 13:01:52;;;;;;;4.78;1.88;;;;;;;;;;4988530;28;20366;-87
2023/07/06 13:04:17;;;;;;;2.83;1.70;;;;;;;;;;4975970;28;20034;-88
2023/07/06 13:06:44;;;;;;;4.68;2.35;;;;;;;;;;4976961;28;20035;-86
2023/07/06 13:09:37;;;;;;;5.43;1.60;;;;;;;;;;4987916;28;20038;-86
2023/07/06 13:12:09;;;;;;;3.58;1.50;;;;;;;;;;4979561;28;20039;-86
2023/07/06 13:14:39;;;;;;;4.00;1.83;;;;;;;;;;4996585;28;20035;-86
2023/07/06 13:17:12;;;;;;;4.13;1.58;;;;;;;;;;4979640;28;20037;-86
2023/07/06 13:19:38;;;;;;;4.68;1.75;;;;;;;;;;4978656;28;20019;-86
2023/07/06 13:22:04;;;;;;;2.78;1.60;;;;;;;;;;4978009;28;20110;-86
2023/07/06 13:24:32;;;;;;;2.97;1.80;;;;;;;;;;4982923;28;20046;-86
2023/07/06 13:26:57;;;;;;;3.22;1.75;;;;;;;;;;4979793;28;20019;-86
2023/07/06 13:29:26;;;;;;;5.65;1.60;;;;;;;;;;4976004;28;20023;-87
2023/07/06 13:31:53;;;;;;;1.83;1.48;;;;;;;;;;4975366;28;20463;-87
2023/07/06 13:34:19;;;;;;;2.97;1.63;;;;;;;;;;4972143;28;20030;-87
2023/07/06 13:36:45;;;;;;;4.93;1.95;;;;;;;;;;4973085;28;20033;-86
2023/07/06 13:39:11;;;;;;;4.38;1.73;;;;;;;;;;4979543;28;20388;-87
2023/07/06 13:41:37;;;;;;;5.38;2.20;;;;;;;;;;4975961;28;20092;-86
2023/07/06 13:44:04;;;;;;;2.92;1.60;;;;;;;;;;4975453;28;20026;-87
2023/07/06 13:46:34;;;;;;;3.28;1.77;;;;;;;;;;4987180;28;20057;-87
2023/07/06 13:49:00;;;;;;;4.32;2.05;;;;;;;;;;4983337;28;20111;-87
2023/07/06 13:51:25;;;;;;;3.75;2.00;;;;;;;;;;4979690;28;20121;-86
2023/07/06 13:53:50;;;;;;;2.67;2.00;;;;;;;;;;4991072;28;20042;-86
2023/07/06 13:56:17;;;;;;;3.60;1.80;;;;;;;;;;4977172;28;20132;-87
2023/07/06 13:58:44;;;;;;;3.22;1.60;;;;;;;;;;4982723;28;20025;-86
2023/07/06 14:01:14;;;;;;;2.22;1.70;;;;;;;;;;4982130;28;20121;-87
2023/07/06 14:03:42;;;;;;;2.88;1.50;;;;;;;;;;4977012;28;20385;-87
2023/07/06 14:06:12;;;;;;;3.65;1.70;;;;;;;;;;4989513;28;20042;-87
2023/07/06 14:08:38;;;;;;;2.65;1.67;;;;;;;;;;4975162;28;20033;-87
2023/07/06 14:11:04;;;;;;;4.15;1.88;;;;;;;;;;4975812;28;20091;-87
2023/07/06 14:13:30;;;;;;;3.15;1.60;;;;;;;;;;4995216;28;20049;-85
2023/07/06 14:15:56;;;;;;;5.28;2.20;;;;;;;;;;4994268;28;20041;-85
2023/07/06 14:18:23;;;;;;;3.85;1.90;;;;;;;;;;4985470;28;20022;-85
2023/07/06 14:20:49;;;;;;;2.67;1.90;;;;;;;;;;4982244;28;20026;-85
2023/07/06 14:23:17;;;;;;;3.97;1.77;;;;;;;;;;4996535;28;20033;-85
2023/07/06 14:25:44;;;;;;;3.15;2.17;;;;;;;;;;4991532;28;20062;-86
2023/07/06 14:28:10;;;;;;;4.60;1.95;;;;;;;;;;4995595;28;20050;-86
2023/07/06 14:30:36;;;;;;;7.70;2.10;;;;;;;;;;4976378;28;20110;-85
2023/07/06 14:33:07;;;;;;;2.35;1.80;;;;;;;;;;4990733;28;20029;-85
2023/07/06 14:35:34;;;;;;;1.95;1.75;;;;;;;;;;4988995;28;20254;-85
2023/07/06 14:38:00;;;;;;;4.82;1.77;;;;;;;;;;4995018;28;20444;-85
2023/07/06 14:40:25;;;;;;;5.50;2.00;;;;;;;;;;4976754;28;20513;-86
2023/07/06 14:42:55;;;;;;;3.05;1.90;;;;;;;;;;4981927;28;20034;-85
2023/07/06 14:45:21;;;;;;;5.55;2.03;;;;;;;;;;4981285;28;20126;-87
2023/07/06 14:47:47;;;;;;;4.63;2.03;;;;;;;;;;4975542;28;20085;-87
2023/07/06 14:50:14;;;;;;;7.72;1.80;;;;;;;;;;4977136;28;20486;-88
2023/07/06 14:52:39;;;;;;;5.25;1.90;;;;;;;;;;4976089;28;20090;-86
2023/07/06 14:55:07;;;;;;;2.45;1.90;;;;;;;;;;4976746;28;20034;-86
2023/07/06 14:57:36;;;;;;;5.60;2.10;;;;;;;;;;4984137;28;20058;-85
2023/07/06 15:00:03;;;;;;;3.83;1.80;;;;;;;;;;4986312;28;20026;-86
2023/07/06 15:02:29;;;;;;;3.85;1.80;;;;;;;;;;4985207;28;20026;-85
2023/07/06 15:04:54;;;;;;;3.63;1.65;;;;;;;;;;4994898;28;20024;-85
2023/07/06 15:07:20;;;;;;;2.28;1.70;;;;;;;;;;4976915;28;20155;-86